sensor_id;sensor_type;location;lat;lon;timestamp;P1;durP1;ratioP1;P2;durP2;ratioP2
32824;SDS011;51060;42.640;24.356;2023-04-25T00:01:46;6.83;;;5.30;;
32824;SDS011;51060;42.640;24.356;2023-04-25T00:04:12;6.30;;;5.13;;
32824;SDS011;51060;42.640;24.356;2023-04-25T00:06:38;6.40;;;5.23;;
32824;SDS011;51060;42.640;24.356;2023-04-25T00:09:05;6.30;;;4.67;;
32824;SDS011;51060;42.640;24.356;2023-04-25T00:11:32;7.23;;;5.17;;
32824;SDS011;51060;42.640;24.356;2023-04-25T00:13:58;6.80;;;5.67;;
32824;SDS011;51060;42.640;24.356;2023-04-25T00:16:27;7.50;;;5.90;;
32824;SDS011;51060;42.640;24.356;2023-04-25T00:18:54;8.40;;;5.83;;
32824;SDS011;51060;42.640;24.356;2023-04-25T00:21:20;7.60;;;4.70;;
32824;SDS011;51060;42.640;24.356;2023-04-25T00:23:46;8.57;;;6.37;;
32824;SDS011;51060;42.640;24.356;2023-04-25T00:26:12;7.17;;;5.77;;
32824;SDS011;51060;42.640;24.356;2023-04-25T00:28:38;6.37;;;5.20;;
32824;SDS011;51060;42.640;24.356;2023-04-25T00:31:04;7.70;;;6.10;;
32824;SDS011;51060;42.640;24.356;2023-04-25T00:33:30;6.60;;;5.40;;
32824;SDS011;51060;42.640;24.356;2023-04-25T00:35:55;10.60;;;6.40;;
32824;SDS011;51060;42.640;24.356;2023-04-25T00:38:21;7.63;;;6.10;;
32824;SDS011;51060;42.640;24.356;2023-04-25T00:40:47;8.50;;;5.67;;
32824;SDS011;51060;42.640;24.356;2023-04-25T00:43:13;7.60;;;5.13;;
32824;SDS011;51060;42.640;24.356;2023-04-25T00:45:39;8.33;;;5.53;;
32824;SDS011;51060;42.640;24.356;2023-04-25T00:48:05;6.60;;;5.10;;
32824;SDS011;51060;42.640;24.356;2023-04-25T00:50:30;7.37;;;5.43;;
32824;SDS011;51060;42.640;24.356;2023-04-25T00:53:00;7.47;;;5.23;;
32824;SDS011;51060;42.640;24.356;2023-04-25T00:55:27;3.63;;;3.30;;
32824;SDS011;51060;42.640;24.356;2023-04-25T00:57:52;4.10;;;3.33;;
32824;SDS011;51060;42.640;24.356;2023-04-25T01:00:20;3.43;;;3.03;;
32824;SDS011;51060;42.640;24.356;2023-04-25T01:02:45;4.53;;;3.43;;
32824;SDS011;51060;42.640;24.356;2023-04-25T01:05:11;4.53;;;3.63;;
32824;SDS011;51060;42.640;24.356;2023-04-25T01:07:37;9.53;;;7.00;;
32824;SDS011;51060;42.640;24.356;2023-04-25T01:10:03;18.53;;;13.47;;
32824;SDS011;51060;42.640;24.356;2023-04-25T01:12:31;14.60;;;10.13;;
32824;SDS011;51060;42.640;24.356;2023-04-25T01:14:56;8.60;;;7.33;;
32824;SDS011;51060;42.640;24.356;2023-04-25T01:17:22;5.93;;;4.73;;
32824;SDS011;51060;42.640;24.356;2023-04-25T01:19:49;5.50;;;5.00;;
32824;SDS011;51060;42.640;24.356;2023-04-25T01:22:15;9.67;;;6.67;;
32824;SDS011;51060;42.640;24.356;2023-04-25T01:24:42;9.37;;;6.60;;
32824;SDS011;51060;42.640;24.356;2023-04-25T01:27:07;8.10;;;6.10;;
32824;SDS011;51060;42.640;24.356;2023-04-25T01:29:34;7.73;;;5.90;;
32824;SDS011;51060;42.640;24.356;2023-04-25T01:32:00;6.63;;;5.73;;
32824;SDS011;51060;42.640;24.356;2023-04-25T01:34:25;7.63;;;6.00;;
32824;SDS011;51060;42.640;24.356;2023-04-25T01:36:51;8.67;;;5.90;;
32824;SDS011;51060;42.640;24.356;2023-04-25T01:39:18;6.70;;;5.77;;
32824;SDS011;51060;42.640;24.356;2023-04-25T01:41:44;7.47;;;5.67;;
32824;SDS011;51060;42.640;24.356;2023-04-25T01:44:10;5.97;;;5.00;;
32824;SDS011;51060;42.640;24.356;2023-04-25T01:46:36;6.07;;;4.90;;
32824;SDS011;51060;42.640;24.356;2023-04-25T01:49:02;5.17;;;4.57;;
32824;SDS011;51060;42.640;24.356;2023-04-25T01:51:28;7.67;;;5.13;;
32824;SDS011;51060;42.640;24.356;2023-04-25T01:53:53;5.50;;;4.70;;
32824;SDS011;51060;42.640;24.356;2023-04-25T01:56:20;7.93;;;6.10;;
32824;SDS011;51060;42.640;24.356;2023-04-25T01:58:46;8.17;;;6.20;;
32824;SDS011;51060;42.640;24.356;2023-04-25T02:01:11;8.63;;;6.77;;
32824;SDS011;51060;42.640;24.356;2023-04-25T02:03:37;6.40;;;5.70;;
32824;SDS011;51060;42.640;24.356;2023-04-25T02:06:03;7.33;;;5.43;;
32824;SDS011;51060;42.640;24.356;2023-04-25T02:08:28;6.43;;;4.87;;
32824;SDS011;51060;42.640;24.356;2023-04-25T02:10:55;6.07;;;4.60;;
32824;SDS011;51060;42.640;24.356;2023-04-25T02:13:21;5.57;;;4.80;;
32824;SDS011;51060;42.640;24.356;2023-04-25T02:15:46;9.13;;;6.80;;
32824;SDS011;51060;42.640;24.356;2023-04-25T02:18:12;7.13;;;6.00;;
32824;SDS011;51060;42.640;24.356;2023-04-25T02:20:38;8.37;;;5.87;;
32824;SDS011;51060;42.640;24.356;2023-04-25T02:23:03;6.13;;;5.17;;
32824;SDS011;51060;42.640;24.356;2023-04-25T02:25:29;4.77;;;4.27;;
32824;SDS011;51060;42.640;24.356;2023-04-25T02:27:55;4.83;;;4.33;;
32824;SDS011;51060;42.640;24.356;2023-04-25T02:30:20;4.80;;;3.97;;
32824;SDS011;51060;42.640;24.356;2023-04-25T02:32:46;4.27;;;3.60;;
32824;SDS011;51060;42.640;24.356;2023-04-25T02:35:12;5.47;;;4.20;;
32824;SDS011;51060;42.640;24.356;2023-04-25T02:37:37;5.73;;;4.20;;
32824;SDS011;51060;42.640;24.356;2023-04-25T02:40:04;3.90;;;3.30;;
32824;SDS011;51060;42.640;24.356;2023-04-25T02:42:33;5.30;;;4.33;;
32824;SDS011;51060;42.640;24.356;2023-04-25T02:44:58;5.33;;;4.23;;
32824;SDS011;51060;42.640;24.356;2023-04-25T02:47:24;8.20;;;6.97;;
32824;SDS011;51060;42.640;24.356;2023-04-25T02:49:50;6.00;;;5.30;;
32824;SDS011;51060;42.640;24.356;2023-04-25T02:52:15;5.00;;;4.50;;
32824;SDS011;51060;42.640;24.356;2023-04-25T02:54:41;4.40;;;3.70;;
32824;SDS011;51060;42.640;24.356;2023-04-25T02:57:07;4.17;;;3.77;;
32824;SDS011;51060;42.640;24.356;2023-04-25T02:59:32;6.13;;;3.90;;
32824;SDS011;51060;42.640;24.356;2023-04-25T03:01:58;4.37;;;3.83;;
32824;SDS011;51060;42.640;24.356;2023-04-25T03:04:24;4.37;;;3.90;;
32824;SDS011;51060;42.640;24.356;2023-04-25T03:06:50;6.37;;;4.93;;
32824;SDS011;51060;42.640;24.356;2023-04-25T03:09:16;5.17;;;4.67;;
32824;SDS011;51060;42.640;24.356;2023-04-25T03:11:41;5.53;;;4.40;;
32824;SDS011;51060;42.640;24.356;2023-04-25T03:14:07;8.30;;;5.47;;
32824;SDS011;51060;42.640;24.356;2023-04-25T03:16:33;5.83;;;4.97;;
32824;SDS011;51060;42.640;24.356;2023-04-25T03:18:58;6.37;;;4.83;;
32824;SDS011;51060;42.640;24.356;2023-04-25T03:21:24;6.77;;;4.70;;
32824;SDS011;51060;42.640;24.356;2023-04-25T03:23:51;5.50;;;4.30;;
32824;SDS011;51060;42.640;24.356;2023-04-25T03:26:17;4.90;;;4.27;;
32824;SDS011;51060;42.640;24.356;2023-04-25T03:28:42;4.77;;;4.27;;
32824;SDS011;51060;42.640;24.356;2023-04-25T03:31:08;6.00;;;4.30;;
32824;SDS011;51060;42.640;24.356;2023-04-25T03:33:33;4.80;;;3.80;;
32824;SDS011;51060;42.640;24.356;2023-04-25T03:35:59;40.20;;;33.03;;
32824;SDS011;51060;42.640;24.356;2023-04-25T03:38:25;17.27;;;13.37;;
32824;SDS011;51060;42.640;24.356;2023-04-25T03:40:51;3.80;;;3.00;;
32824;SDS011;51060;42.640;24.356;2023-04-25T03:43:17;4.23;;;3.60;;
32824;SDS011;51060;42.640;24.356;2023-04-25T03:45:42;30.37;;;22.77;;
32824;SDS011;51060;42.640;24.356;2023-04-25T03:48:08;27.67;;;20.93;;
32824;SDS011;51060;42.640;24.356;2023-04-25T03:50:33;10.60;;;9.50;;
32824;SDS011;51060;42.640;24.356;2023-04-25T03:52:59;24.20;;;14.13;;
32824;SDS011;51060;42.640;24.356;2023-04-25T03:55:25;25.80;;;14.60;;
32824;SDS011;51060;42.640;24.356;2023-04-25T03:57:50;20.87;;;13.33;;
32824;SDS011;51060;42.640;24.356;2023-04-25T04:00:16;21.83;;;13.30;;
32824;SDS011;51060;42.640;24.356;2023-04-25T04:02:41;24.60;;;13.47;;
32824;SDS011;51060;42.640;24.356;2023-04-25T04:05:07;24.03;;;12.73;;
32824;SDS011;51060;42.640;24.356;2023-04-25T04:07:33;43.13;;;23.67;;
32824;SDS011;51060;42.640;24.356;2023-04-25T04:10:01;27.03;;;17.43;;
32824;SDS011;51060;42.640;24.356;2023-04-25T04:12:27;50.60;;;31.70;;
32824;SDS011;51060;42.640;24.356;2023-04-25T04:14:52;42.87;;;26.67;;
32824;SDS011;51060;42.640;24.356;2023-04-25T04:17:18;28.83;;;20.07;;
32824;SDS011;51060;42.640;24.356;2023-04-25T04:19:43;24.63;;;15.40;;
32824;SDS011;51060;42.640;24.356;2023-04-25T04:22:09;20.70;;;13.93;;
32824;SDS011;51060;42.640;24.356;2023-04-25T04:24:35;34.63;;;15.23;;
32824;SDS011;51060;42.640;24.356;2023-04-25T04:27:00;31.80;;;17.03;;
32824;SDS011;51060;42.640;24.356;2023-04-25T04:29:26;20.20;;;13.57;;
32824;SDS011;51060;42.640;24.356;2023-04-25T04:31:52;55.77;;;22.30;;
32824;SDS011;51060;42.640;24.356;2023-04-25T04:34:18;27.80;;;16.57;;
32824;SDS011;51060;42.640;24.356;2023-04-25T04:36:47;24.13;;;16.80;;
32824;SDS011;51060;42.640;24.356;2023-04-25T04:39:13;14.17;;;10.67;;
32824;SDS011;51060;42.640;24.356;2023-04-25T04:41:41;14.23;;;11.67;;
32824;SDS011;51060;42.640;24.356;2023-04-25T04:44:06;13.33;;;10.57;;
32824;SDS011;51060;42.640;24.356;2023-04-25T04:46:33;16.17;;;12.17;;
32824;SDS011;51060;42.640;24.356;2023-04-25T04:49:04;18.40;;;13.20;;
32824;SDS011;51060;42.640;24.356;2023-04-25T04:51:30;26.97;;;16.73;;
32824;SDS011;51060;42.640;24.356;2023-04-25T04:53:56;28.43;;;19.73;;
32824;SDS011;51060;42.640;24.356;2023-04-25T04:56:23;38.63;;;24.33;;
32824;SDS011;51060;42.640;24.356;2023-04-25T04:58:50;35.33;;;24.60;;
32824;SDS011;51060;42.640;24.356;2023-04-25T05:01:17;36.63;;;23.13;;
32824;SDS011;51060;42.640;24.356;2023-04-25T05:03:45;51.60;;;26.03;;
32824;SDS011;51060;42.640;24.356;2023-04-25T05:06:11;40.13;;;24.00;;
32824;SDS011;51060;42.640;24.356;2023-04-25T05:08:36;37.80;;;24.80;;
32824;SDS011;51060;42.640;24.356;2023-04-25T05:11:02;57.30;;;28.93;;
32824;SDS011;51060;42.640;24.356;2023-04-25T05:13:28;38.10;;;25.87;;
32824;SDS011;51060;42.640;24.356;2023-04-25T05:15:53;35.47;;;23.57;;
32824;SDS011;51060;42.640;24.356;2023-04-25T05:18:19;34.13;;;20.80;;
32824;SDS011;51060;42.640;24.356;2023-04-25T05:20:45;27.60;;;18.57;;
32824;SDS011;51060;42.640;24.356;2023-04-25T05:23:11;27.93;;;18.73;;
32824;SDS011;51060;42.640;24.356;2023-04-25T05:25:36;22.63;;;16.80;;
32824;SDS011;51060;42.640;24.356;2023-04-25T05:28:02;24.00;;;18.00;;
32824;SDS011;51060;42.640;24.356;2023-04-25T05:30:28;28.87;;;20.20;;
32824;SDS011;51060;42.640;24.356;2023-04-25T05:32:53;26.07;;;18.90;;
32824;SDS011;51060;42.640;24.356;2023-04-25T05:35:19;24.80;;;19.43;;
32824;SDS011;51060;42.640;24.356;2023-04-25T05:37:44;26.03;;;19.27;;
32824;SDS011;51060;42.640;24.356;2023-04-25T05:40:10;27.80;;;21.80;;
32824;SDS011;51060;42.640;24.356;2023-04-25T05:42:36;28.57;;;21.20;;
32824;SDS011;51060;42.640;24.356;2023-04-25T05:45:02;25.77;;;20.53;;
32824;SDS011;51060;42.640;24.356;2023-04-25T05:47:28;22.63;;;16.53;;
32824;SDS011;51060;42.640;24.356;2023-04-25T05:49:53;24.20;;;18.60;;
32824;SDS011;51060;42.640;24.356;2023-04-25T05:52:19;24.90;;;20.37;;
32824;SDS011;51060;42.640;24.356;2023-04-25T05:54:44;28.80;;;21.83;;
32824;SDS011;51060;42.640;24.356;2023-04-25T05:57:18;23.97;;;19.67;;
32824;SDS011;51060;42.640;24.356;2023-04-25T05:59:45;28.43;;;21.53;;
32824;SDS011;51060;42.640;24.356;2023-04-25T06:02:11;25.43;;;20.00;;
32824;SDS011;51060;42.640;24.356;2023-04-25T06:04:36;22.87;;;18.90;;
32824;SDS011;51060;42.640;24.356;2023-04-25T06:07:02;25.55;;;20.08;;
32824;SDS011;51060;42.640;24.356;2023-04-25T06:09:27;30.60;;;23.95;;
32824;SDS011;51060;42.640;24.356;2023-04-25T06:11:53;13.07;;;11.50;;
32824;SDS011;51060;42.640;24.356;2023-04-25T06:14:19;5.28;;;4.78;;
32824;SDS011;51060;42.640;24.356;2023-04-25T06:16:44;5.22;;;4.72;;
32824;SDS011;51060;42.640;24.356;2023-04-25T06:19:10;5.70;;;4.97;;
32824;SDS011;51060;42.640;24.356;2023-04-25T06:21:35;3.88;;;3.47;;
32824;SDS011;51060;42.640;24.356;2023-04-25T06:24:01;6.77;;;5.93;;
32824;SDS011;51060;42.640;24.356;2023-04-25T06:26:26;5.70;;;5.20;;
32824;SDS011;51060;42.640;24.356;2023-04-25T06:28:52;4.88;;;4.40;;
32824;SDS011;51060;42.640;24.356;2023-04-25T06:31:18;4.60;;;4.07;;
32824;SDS011;51060;42.640;24.356;2023-04-25T06:33:43;6.25;;;5.50;;
32824;SDS011;51060;42.640;24.356;2023-04-25T06:36:09;9.50;;;7.28;;
32824;SDS011;51060;42.640;24.356;2023-04-25T06:38:34;4.43;;;4.03;;
32824;SDS011;51060;42.640;24.356;2023-04-25T06:41:00;4.40;;;3.85;;
32824;SDS011;51060;42.640;24.356;2023-04-25T06:43:26;5.03;;;4.53;;
32824;SDS011;51060;42.640;24.356;2023-04-25T06:45:51;4.32;;;3.92;;
32824;SDS011;51060;42.640;24.356;2023-04-25T06:48:17;5.00;;;4.60;;
32824;SDS011;51060;42.640;24.356;2023-04-25T06:50:42;4.25;;;3.95;;
32824;SDS011;51060;42.640;24.356;2023-04-25T06:53:08;4.45;;;4.05;;
32824;SDS011;51060;42.640;24.356;2023-04-25T06:55:34;4.28;;;3.88;;
32824;SDS011;51060;42.640;24.356;2023-04-25T06:57:59;4.03;;;3.72;;
32824;SDS011;51060;42.640;24.356;2023-04-25T07:00:25;4.32;;;3.88;;
32824;SDS011;51060;42.640;24.356;2023-04-25T07:02:51;5.22;;;4.68;;
32824;SDS011;51060;42.640;24.356;2023-04-25T07:05:16;5.93;;;5.32;;
32824;SDS011;51060;42.640;24.356;2023-04-25T07:07:42;6.10;;;5.50;;
32824;SDS011;51060;42.640;24.356;2023-04-25T07:10:11;7.53;;;5.78;;
32824;SDS011;51060;42.640;24.356;2023-04-25T07:12:37;8.02;;;6.55;;
32824;SDS011;51060;42.640;24.356;2023-04-25T07:15:02;5.18;;;4.40;;
32824;SDS011;51060;42.640;24.356;2023-04-25T07:17:31;7.20;;;5.90;;
32824;SDS011;51060;42.640;24.356;2023-04-25T07:19:57;6.20;;;5.55;;
32824;SDS011;51060;42.640;24.356;2023-04-25T07:22:23;6.18;;;4.90;;
32824;SDS011;51060;42.640;24.356;2023-04-25T07:24:49;5.25;;;4.65;;
32824;SDS011;51060;42.640;24.356;2023-04-25T07:27:15;3.80;;;3.50;;
32824;SDS011;51060;42.640;24.356;2023-04-25T07:29:40;4.93;;;4.40;;
32824;SDS011;51060;42.640;24.356;2023-04-25T07:32:07;5.97;;;5.38;;
32824;SDS011;51060;42.640;24.356;2023-04-25T07:34:32;14.18;;;10.82;;
32824;SDS011;51060;42.640;24.356;2023-04-25T07:37:02;3.42;;;3.13;;
32824;SDS011;51060;42.640;24.356;2023-04-25T07:39:27;3.95;;;2.80;;
32824;SDS011;51060;42.640;24.356;2023-04-25T07:41:53;4.82;;;4.15;;
32824;SDS011;51060;42.640;24.356;2023-04-25T07:44:19;4.43;;;4.03;;
32824;SDS011;51060;42.640;24.356;2023-04-25T07:46:45;2.95;;;2.72;;
32824;SDS011;51060;42.640;24.356;2023-04-25T07:49:10;3.17;;;2.97;;
32824;SDS011;51060;42.640;24.356;2023-04-25T07:51:36;3.85;;;3.55;;
32824;SDS011;51060;42.640;24.356;2023-04-25T07:54:01;3.40;;;3.08;;
32824;SDS011;51060;42.640;24.356;2023-04-25T07:56:27;2.72;;;2.53;;
32824;SDS011;51060;42.640;24.356;2023-04-25T07:58:53;2.90;;;2.70;;
32824;SDS011;51060;42.640;24.356;2023-04-25T08:01:18;9.02;;;8.23;;
32824;SDS011;51060;42.640;24.356;2023-04-25T08:03:46;5.00;;;4.60;;
32824;SDS011;51060;42.640;24.356;2023-04-25T08:06:12;3.78;;;3.30;;
32824;SDS011;51060;42.640;24.356;2023-04-25T08:08:37;3.60;;;3.30;;
32824;SDS011;51060;42.640;24.356;2023-04-25T08:11:03;3.63;;;3.33;;
32824;SDS011;51060;42.640;24.356;2023-04-25T08:13:28;6.47;;;4.00;;
32824;SDS011;51060;42.640;24.356;2023-04-25T08:15:54;3.75;;;3.45;;
32824;SDS011;51060;42.640;24.356;2023-04-25T08:18:20;4.75;;;3.70;;
32824;SDS011;51060;42.640;24.356;2023-04-25T08:20:45;4.15;;;3.80;;
32824;SDS011;51060;42.640;24.356;2023-04-25T08:23:11;3.17;;;2.97;;
32824;SDS011;51060;42.640;24.356;2023-04-25T08:25:36;6.72;;;6.00;;
32824;SDS011;51060;42.640;24.356;2023-04-25T08:28:02;4.30;;;3.90;;
32824;SDS011;51060;42.640;24.356;2023-04-25T08:30:28;3.55;;;3.25;;
32824;SDS011;51060;42.640;24.356;2023-04-25T08:32:54;2.85;;;2.65;;
32824;SDS011;51060;42.640;24.356;2023-04-25T08:35:20;3.15;;;2.85;;
32824;SDS011;51060;42.640;24.356;2023-04-25T08:37:45;4.10;;;3.70;;
32824;SDS011;51060;42.640;24.356;2023-04-25T08:40:12;3.33;;;2.90;;
32824;SDS011;51060;42.640;24.356;2023-04-25T08:42:40;3.67;;;3.38;;
32824;SDS011;51060;42.640;24.356;2023-04-25T08:45:07;3.70;;;3.40;;
32824;SDS011;51060;42.640;24.356;2023-04-25T08:47:33;3.88;;;3.45;;
32824;SDS011;51060;42.640;24.356;2023-04-25T08:50:02;3.40;;;3.10;;
32824;SDS011;51060;42.640;24.356;2023-04-25T08:52:30;3.50;;;3.15;;
32824;SDS011;51060;42.640;24.356;2023-04-25T08:55:00;3.10;;;2.80;;
32824;SDS011;51060;42.640;24.356;2023-04-25T08:57:27;3.20;;;2.90;;
32824;SDS011;51060;42.640;24.356;2023-04-25T08:59:53;3.78;;;3.40;;
32824;SDS011;51060;42.640;24.356;2023-04-25T09:02:19;3.22;;;2.92;;
32824;SDS011;51060;42.640;24.356;2023-04-25T09:04:45;3.88;;;2.70;;
32824;SDS011;51060;42.640;24.356;2023-04-25T09:07:11;3.00;;;2.80;;
32824;SDS011;51060;42.640;24.356;2023-04-25T09:09:37;3.20;;;2.95;;
32824;SDS011;51060;42.640;24.356;2023-04-25T09:12:02;3.33;;;3.03;;
32824;SDS011;51060;42.640;24.356;2023-04-25T09:14:28;6.32;;;5.57;;
32824;SDS011;51060;42.640;24.356;2023-04-25T09:19:34;4.00;;;3.55;;
32824;SDS011;51060;42.640;24.356;2023-04-25T09:22:01;3.97;;;3.67;;
32824;SDS011;51060;42.640;24.356;2023-04-25T09:24:35;2.97;;;2.78;;
32824;SDS011;51060;42.640;24.356;2023-04-25T09:29:35;18.08;;;12.32;;
32824;SDS011;51060;42.640;24.356;2023-04-25T09:34:41;3.70;;;3.40;;
32824;SDS011;51060;42.640;24.356;2023-04-25T09:37:09;7.90;;;7.07;;
32824;SDS011;51060;42.640;24.356;2023-04-25T09:39:38;3.75;;;3.45;;
32824;SDS011;51060;42.640;24.356;2023-04-25T09:42:05;3.53;;;3.22;;
32824;SDS011;51060;42.640;24.356;2023-04-25T09:44:30;3.10;;;2.85;;
32824;SDS011;51060;42.640;24.356;2023-04-25T09:46:56;3.80;;;3.50;;
32824;SDS011;51060;42.640;24.356;2023-04-25T09:49:22;4.22;;;3.78;;
32824;SDS011;51060;42.640;24.356;2023-04-25T09:51:57;5.88;;;5.15;;
32824;SDS011;51060;42.640;24.356;2023-04-25T09:54:24;3.78;;;3.47;;
32824;SDS011;51060;42.640;24.356;2023-04-25T09:56:51;3.10;;;2.90;;
32824;SDS011;51060;42.640;24.356;2023-04-25T09:59:21;3.70;;;3.40;;
32824;SDS011;51060;42.640;24.356;2023-04-25T10:01:50;3.35;;;3.05;;
32824;SDS011;51060;42.640;24.356;2023-04-25T10:04:22;3.55;;;3.25;;
32824;SDS011;51060;42.640;24.356;2023-04-25T10:06:51;3.17;;;2.53;;
32824;SDS011;51060;42.640;24.356;2023-04-25T10:09:21;3.30;;;3.00;;
32824;SDS011;51060;42.640;24.356;2023-04-25T10:11:50;2.60;;;2.40;;
32824;SDS011;51060;42.640;24.356;2023-04-25T10:14:16;2.55;;;2.28;;
32824;SDS011;51060;42.640;24.356;2023-04-25T10:16:42;2.70;;;2.50;;
32824;SDS011;51060;42.640;24.356;2023-04-25T10:19:09;3.72;;;3.30;;
32824;SDS011;51060;42.640;24.356;2023-04-25T10:21:35;3.85;;;3.45;;
32824;SDS011;51060;42.640;24.356;2023-04-25T10:24:10;2.75;;;2.55;;
32824;SDS011;51060;42.640;24.356;2023-04-25T10:26:35;3.22;;;2.95;;
32824;SDS011;51060;42.640;24.356;2023-04-25T10:29:01;3.13;;;2.83;;
32824;SDS011;51060;42.640;24.356;2023-04-25T10:31:31;3.72;;;2.97;;
32824;SDS011;51060;42.640;24.356;2023-04-25T10:33:56;3.03;;;2.80;;
32824;SDS011;51060;42.640;24.356;2023-04-25T10:36:22;2.70;;;2.50;;
32824;SDS011;51060;42.640;24.356;2023-04-25T10:38:49;6.25;;;5.65;;
32824;SDS011;51060;42.640;24.356;2023-04-25T10:41:17;2.20;;;2.05;;
32824;SDS011;51060;42.640;24.356;2023-04-25T10:43:46;2.80;;;2.60;;
32824;SDS011;51060;42.640;24.356;2023-04-25T10:46:13;3.15;;;2.50;;
32824;SDS011;51060;42.640;24.356;2023-04-25T10:48:47;2.63;;;2.42;;
32824;SDS011;51060;42.640;24.356;2023-04-25T10:51:17;4.25;;;3.85;;
32824;SDS011;51060;42.640;24.356;2023-04-25T10:53:47;2.42;;;2.22;;
32824;SDS011;51060;42.640;24.356;2023-04-25T10:56:23;2.90;;;2.70;;
32824;SDS011;51060;42.640;24.356;2023-04-25T10:58:51;3.33;;;2.92;;
32824;SDS011;51060;42.640;24.356;2023-04-25T11:01:24;3.30;;;3.08;;
32824;SDS011;51060;42.640;24.356;2023-04-25T11:03:56;3.15;;;2.90;;
32824;SDS011;51060;42.640;24.356;2023-04-25T11:06:29;2.92;;;2.70;;
32824;SDS011;51060;42.640;24.356;2023-04-25T11:09:15;5.05;;;4.68;;
32824;SDS011;51060;42.640;24.356;2023-04-25T11:11:40;3.85;;;3.53;;
32824;SDS011;51060;42.640;24.356;2023-04-25T11:14:06;3.53;;;3.22;;
32824;SDS011;51060;42.640;24.356;2023-04-25T11:16:32;3.80;;;3.47;;
32824;SDS011;51060;42.640;24.356;2023-04-25T11:18:58;3.40;;;3.08;;
32824;SDS011;51060;42.640;24.356;2023-04-25T11:21:26;3.88;;;3.05;;
32824;SDS011;51060;42.640;24.356;2023-04-25T11:23:53;3.63;;;3.33;;
32824;SDS011;51060;42.640;24.356;2023-04-25T11:26:19;3.50;;;3.20;;
32824;SDS011;51060;42.640;24.356;2023-04-25T11:28:45;4.55;;;4.03;;
32824;SDS011;51060;42.640;24.356;2023-04-25T11:31:12;3.42;;;3.00;;
32824;SDS011;51060;42.640;24.356;2023-04-25T11:33:38;4.07;;;3.35;;
32824;SDS011;51060;42.640;24.356;2023-04-25T11:36:03;3.58;;;3.28;;
32824;SDS011;51060;42.640;24.356;2023-04-25T11:38:30;3.25;;;2.08;;
32824;SDS011;51060;42.640;24.356;2023-04-25T11:40:56;2.13;;;1.88;;
32824;SDS011;51060;42.640;24.356;2023-04-25T11:43:22;1.80;;;1.70;;
32824;SDS011;51060;42.640;24.356;2023-04-25T11:45:48;3.60;;;3.40;;
32824;SDS011;51060;42.640;24.356;2023-04-25T11:48:14;3.25;;;2.72;;
32824;SDS011;51060;42.640;24.356;2023-04-25T11:50:41;7.28;;;5.15;;
32824;SDS011;51060;42.640;24.356;2023-04-25T11:53:06;2.38;;;2.17;;
32824;SDS011;51060;42.640;24.356;2023-04-25T11:55:33;2.10;;;1.90;;
32824;SDS011;51060;42.640;24.356;2023-04-25T11:57:59;2.00;;;1.85;;
32824;SDS011;51060;42.640;24.356;2023-04-25T12:00:25;3.40;;;3.10;;
32824;SDS011;51060;42.640;24.356;2023-04-25T12:02:54;2.60;;;2.17;;
32824;SDS011;51060;42.640;24.356;2023-04-25T12:05:23;3.00;;;2.10;;
32824;SDS011;51060;42.640;24.356;2023-04-25T12:07:51;2.80;;;1.90;;
32824;SDS011;51060;42.640;24.356;2023-04-25T12:10:17;2.83;;;1.80;;
32824;SDS011;51060;42.640;24.356;2023-04-25T12:12:44;2.10;;;1.88;;
32824;SDS011;51060;42.640;24.356;2023-04-25T12:17:41;1.63;;;1.52;;
32824;SDS011;51060;42.640;24.356;2023-04-25T12:20:10;2.30;;;2.10;;
32824;SDS011;51060;42.640;24.356;2023-04-25T12:22:40;1.95;;;1.75;;
32824;SDS011;51060;42.640;24.356;2023-04-25T12:25:09;1.70;;;1.60;;
32824;SDS011;51060;42.640;24.356;2023-04-25T12:27:38;2.10;;;2.00;;
32824;SDS011;51060;42.640;24.356;2023-04-25T12:30:08;1.50;;;1.40;;
32824;SDS011;51060;42.640;24.356;2023-04-25T12:32:34;1.50;;;1.40;;
32824;SDS011;51060;42.640;24.356;2023-04-25T12:35:00;1.70;;;1.60;;
32824;SDS011;51060;42.640;24.356;2023-04-25T12:37:26;2.78;;;1.95;;
32824;SDS011;51060;42.640;24.356;2023-04-25T12:39:53;1.67;;;1.13;;
32824;SDS011;51060;42.640;24.356;2023-04-25T12:42:19;2.15;;;1.83;;
32824;SDS011;51060;42.640;24.356;2023-04-25T12:44:44;2.47;;;1.65;;
32824;SDS011;51060;42.640;24.356;2023-04-25T12:47:11;1.52;;;1.40;;
32824;SDS011;51060;42.640;24.356;2023-04-25T12:49:37;2.88;;;1.40;;
32824;SDS011;51060;42.640;24.356;2023-04-25T12:52:02;1.90;;;1.77;;
32824;SDS011;51060;42.640;24.356;2023-04-25T12:54:28;1.58;;;1.10;;
32824;SDS011;51060;42.640;24.356;2023-04-25T12:56:53;0.95;;;0.90;;
32824;SDS011;51060;42.640;24.356;2023-04-25T12:59:20;0.80;;;0.80;;
32824;SDS011;51060;42.640;24.356;2023-04-25T13:01:46;2.65;;;1.50;;
32824;SDS011;51060;42.640;24.356;2023-04-25T13:04:12;1.00;;;0.90;;
32824;SDS011;51060;42.640;24.356;2023-04-25T13:06:37;1.58;;;1.33;;
32824;SDS011;51060;42.640;24.356;2023-04-25T13:09:03;1.85;;;1.45;;
32824;SDS011;51060;42.640;24.356;2023-04-25T13:11:29;1.77;;;1.00;;
32824;SDS011;51060;42.640;24.356;2023-04-25T13:13:55;1.42;;;0.90;;
32824;SDS011;51060;42.640;24.356;2023-04-25T13:16:21;1.33;;;1.23;;
32824;SDS011;51060;42.640;24.356;2023-04-25T13:18:47;1.50;;;0.80;;
32824;SDS011;51060;42.640;24.356;2023-04-25T13:21:13;0.80;;;0.80;;
32824;SDS011;51060;42.640;24.356;2023-04-25T13:23:39;1.20;;;1.00;;
32824;SDS011;51060;42.640;24.356;2023-04-25T13:26:06;1.58;;;1.13;;
32824;SDS011;51060;42.640;24.356;2023-04-25T13:28:32;2.38;;;1.90;;
32824;SDS011;51060;42.640;24.356;2023-04-25T13:30:58;1.15;;;0.90;;
32824;SDS011;51060;42.640;24.356;2023-04-25T13:33:24;1.40;;;1.30;;
32824;SDS011;51060;42.640;24.356;2023-04-25T13:35:50;0.80;;;0.80;;
32824;SDS011;51060;42.640;24.356;2023-04-25T13:38:22;1.27;;;1.17;;
32824;SDS011;51060;42.640;24.356;2023-04-25T13:40:48;1.52;;;0.90;;
32824;SDS011;51060;42.640;24.356;2023-04-25T13:43:15;1.50;;;1.40;;
32824;SDS011;51060;42.640;24.356;2023-04-25T13:45:41;1.65;;;1.55;;
32824;SDS011;51060;42.640;24.356;2023-04-25T13:48:07;1.30;;;0.82;;
32824;SDS011;51060;42.640;24.356;2023-04-25T13:50:32;0.80;;;0.80;;
32824;SDS011;51060;42.640;24.356;2023-04-25T13:52:58;1.02;;;0.90;;
32824;SDS011;51060;42.640;24.356;2023-04-25T13:55:23;0.93;;;0.80;;
32824;SDS011;51060;42.640;24.356;2023-04-25T13:57:49;1.77;;;0.80;;
32824;SDS011;51060;42.640;24.356;2023-04-25T14:00:14;0.73;;;0.63;;
32824;SDS011;51060;42.640;24.356;2023-04-25T14:02:40;1.27;;;0.70;;
32824;SDS011;51060;42.640;24.356;2023-04-25T14:05:06;0.80;;;0.80;;
32824;SDS011;51060;42.640;24.356;2023-04-25T14:07:33;1.55;;;1.45;;
32824;SDS011;51060;42.640;24.356;2023-04-25T14:10:00;0.77;;;0.60;;
32824;SDS011;51060;42.640;24.356;2023-04-25T14:12:26;1.50;;;0.80;;
32824;SDS011;51060;42.640;24.356;2023-04-25T14:14:51;0.80;;;0.80;;
32824;SDS011;51060;42.640;24.356;2023-04-25T14:17:20;1.13;;;0.77;;
32824;SDS011;51060;42.640;24.356;2023-04-25T14:19:45;1.60;;;1.20;;
32824;SDS011;51060;42.640;24.356;2023-04-25T14:22:13;3.78;;;2.50;;
32824;SDS011;51060;42.640;24.356;2023-04-25T14:24:40;4.05;;;1.40;;
32824;SDS011;51060;42.640;24.356;2023-04-25T14:27:06;2.38;;;1.15;;
32824;SDS011;51060;42.640;24.356;2023-04-25T14:29:31;3.05;;;1.30;;
32824;SDS011;51060;42.640;24.356;2023-04-25T14:31:57;1.00;;;0.70;;
32824;SDS011;51060;42.640;24.356;2023-04-25T14:34:24;2.55;;;0.60;;